createdAt,value
2023-05-16T00:04:36.653Z,5.2
2023-05-16T00:10:56.559Z,5.2
2023-05-16T00:17:19.716Z,4
2023-05-16T00:23:39.582Z,4
2023-05-16T00:30:02.508Z,2.8
2023-05-16T00:36:23.875Z,2.8
2023-05-16T00:42:45.538Z,2.5
2023-05-16T00:49:05.583Z,2.5
2023-05-16T00:55:28.532Z,2
2023-05-16T01:01:48.620Z,2
2023-05-16T01:08:11.525Z,2.6
2023-05-16T01:14:31.693Z,2.6
2023-05-16T01:20:54.568Z,4.4
2023-05-16T01:27:14.634Z,4.4
2023-05-16T01:33:37.658Z,4.2
2023-05-16T01:39:57.759Z,4.2
2023-05-16T01:46:20.559Z,3.8
2023-05-16T01:52:40.698Z,3.8
2023-05-16T01:59:03.498Z,5.1
2023-05-16T02:05:23.677Z,5.1
2023-05-16T02:11:46.587Z,3.1
2023-05-16T02:18:06.667Z,3.1
2023-05-16T02:24:29.541Z,2.5
2023-05-16T02:30:49.681Z,2.5
2023-05-16T02:37:13.393Z,2.5
2023-05-16T02:43:32.569Z,2.5
2023-05-16T02:49:55.581Z,4.3
2023-05-16T02:56:15.551Z,4.3
2023-05-16T03:02:38.686Z,3
2023-05-16T03:08:58.652Z,3
2023-05-16T03:15:21.613Z,5.1
2023-05-16T03:31:10.571Z,5.9
2023-05-16T03:37:30.464Z,5.9
2023-05-16T03:43:53.586Z,6.1
2023-05-16T03:50:13.584Z,6.1
2023-05-16T03:56:36.573Z,3.8
2023-05-16T04:02:56.575Z,3.8
2023-05-16T04:09:19.537Z,0.8
2023-05-16T04:15:39.530Z,0.8
2023-05-16T04:22:02.565Z,2
2023-05-16T04:28:22.660Z,2
2023-05-16T04:34:45.499Z,1.3
2023-05-16T04:41:05.587Z,1.3
2023-05-16T04:47:28.644Z,1.9
2023-05-16T04:53:48.553Z,1.9
2023-05-16T05:00:11.591Z,2.1
2023-05-16T05:06:31.608Z,2.1
2023-05-16T05:12:54.520Z,4.6
2023-05-16T05:19:14.595Z,4.6
2023-05-16T05:25:37.823Z,5.2
2023-05-16T05:31:57.605Z,5.2
2023-05-16T05:38:20.523Z,4.2
2023-05-16T05:44:40.602Z,4.2
2023-05-16T05:51:03.576Z,1.4
2023-05-16T05:57:23.504Z,1.4
2023-05-16T06:03:46.624Z,2.5
2023-05-16T06:10:06.544Z,2.5
2023-05-16T06:16:29.544Z,1.9
2023-05-16T06:22:49.571Z,1.9
2023-05-16T06:29:12.509Z,3.2
2023-05-16T06:35:32.604Z,3.2
2023-05-16T06:41:56.650Z,3.1
2023-05-16T06:48:15.711Z,3.1
2023-05-16T06:54:38.512Z,5.9
2023-05-16T07:00:58.580Z,5.9
2023-05-16T07:07:21.549Z,2.5
2023-05-16T07:13:41.509Z,2.5
2023-05-16T07:20:05.545Z,2.6
2023-05-16T07:26:24.513Z,2.6
2023-05-16T07:32:47.733Z,3.1
2023-05-16T07:39:07.568Z,3.1
2023-05-16T07:45:30.684Z,2.8
2023-05-16T07:51:50.578Z,2.8
2023-05-16T07:58:13.596Z,1.6
2023-05-16T08:04:33.524Z,1.6
2023-05-16T08:10:56.589Z,0.9
2023-05-16T08:17:16.678Z,0.9
2023-05-16T08:23:39.567Z,0.6
2023-05-16T08:29:59.526Z,0.6
2023-05-16T08:47:34.305Z,1.8
2023-05-16T08:53:54.516Z,1.8
2023-05-16T09:00:17.480Z,1.6
2023-05-16T09:06:37.603Z,1.6
2023-05-16T09:13:00.550Z,0.5
2023-05-16T09:19:21.455Z,0.5
2023-05-16T09:25:44.591Z,0.8
2023-05-16T09:32:04.506Z,0.8
2023-05-16T09:38:27.594Z,0.7
2023-05-16T09:44:47.574Z,0.7
2023-05-16T09:51:10.548Z,1.4
2023-05-16T09:57:30.601Z,1.4
2023-05-16T10:03:53.659Z,0.7
2023-05-16T10:10:13.559Z,0.7
2023-05-16T10:16:36.591Z,0.8
2023-05-16T10:22:56.734Z,0.8
2023-05-16T10:29:19.559Z,0.9
2023-05-16T10:35:39.493Z,0.9
2023-05-16T10:42:02.653Z,0.5
2023-05-16T10:48:22.512Z,0.5
2023-05-16T10:54:45.582Z,1
2023-05-16T11:01:05.743Z,1
2023-05-16T11:07:28.552Z,1
2023-05-16T11:13:48.484Z,1
2023-05-16T11:20:11.535Z,1.9
2023-05-16T11:26:31.557Z,1.9
2023-05-16T11:32:54.492Z,0.4
2023-05-16T11:39:14.634Z,0.4
2023-05-16T11:45:37.675Z,0.3
2023-05-16T11:51:57.527Z,0.3
2023-05-16T11:58:20.602Z,0.1
2023-05-16T12:04:40.819Z,0.1
2023-05-16T12:11:03.502Z,0.2
2023-05-16T12:17:23.663Z,0.2
2023-05-16T12:23:46.563Z,0.4
2023-05-16T12:30:06.511Z,0.4
2023-05-16T12:36:29.564Z,2
2023-05-16T12:42:49.527Z,2
2023-05-16T12:49:12.495Z,1.5
2023-05-16T12:55:32.590Z,1.5
2023-05-16T13:01:55.583Z,1.3
2023-05-16T13:08:16.399Z,1.3
2023-05-16T13:14:40.780Z,0.6
2023-05-16T13:20:59.476Z,0.6
2023-05-16T13:27:22.542Z,0.4
2023-05-16T13:33:42.610Z,0.4
2023-05-16T13:40:05.508Z,0.4
2023-05-16T13:46:25.607Z,0.4
2023-05-16T13:52:48.593Z,1.2
2023-05-16T13:59:09.702Z,1.2
2023-05-16T14:05:31.501Z,0.7
2023-05-16T14:28:54.187Z,1.2
2023-05-16T14:35:13.500Z,1.2
2023-05-16T14:41:36.553Z,1.2
2023-05-16T14:47:56.671Z,1.2
2023-05-16T14:54:19.476Z,0.9
2023-05-16T15:00:39.585Z,0.9
2023-05-16T15:07:02.768Z,0.6
2023-05-16T15:13:22.550Z,0.6
2023-05-16T15:19:45.530Z,0.5
2023-05-16T15:26:05.614Z,0.5
2023-05-16T15:32:28.589Z,0.2
2023-05-16T15:38:48.492Z,0.2
2023-05-16T15:45:11.842Z,1.2
2023-05-16T15:51:31.526Z,1.2
2023-05-16T15:57:54.484Z,0.1
2023-05-16T16:04:14.674Z,0.1
2023-05-16T16:10:37.535Z,0.2
2023-05-16T16:16:58.558Z,0.2
2023-05-16T16:23:21.921Z,1
2023-05-16T16:29:41.574Z,1
2023-05-16T16:36:04.561Z,1.5
2023-05-16T16:42:24.732Z,1.5
2023-05-16T16:48:47.548Z,1.4
2023-05-16T16:55:07.474Z,1.4
2023-05-16T17:01:30.667Z,0.9
2023-05-16T17:07:50.582Z,0.9
2023-05-16T17:14:13.634Z,1.2
2023-05-16T17:20:33.657Z,1.2
2023-05-16T17:26:56.506Z,0.6
2023-05-16T17:33:16.520Z,0.6
2023-05-16T17:39:39.752Z,0.6
2023-05-16T17:45:59.673Z,0.6
2023-05-16T17:52:22.524Z,0.3
2023-05-16T17:58:42.792Z,0.3
2023-05-16T18:05:05.611Z,0.8
2023-05-16T18:11:25.492Z,0.8
2023-05-16T18:17:48.682Z,2
2023-05-16T18:24:08.610Z,2
2023-05-16T18:30:31.495Z,0.4
2023-05-16T18:36:51.670Z,0.4
2023-05-16T18:43:14.674Z,1.1
2023-05-16T18:49:34.575Z,1.1
2023-05-16T18:55:57.935Z,0.6
2023-05-16T19:02:20.540Z,0.6
2023-05-16T19:08:47.774Z,0.3
2023-05-16T19:15:00.715Z,0.3
2023-05-16T19:21:23.511Z,0.4
2023-05-16T19:44:48.428Z,3.6
2023-05-16T19:51:08.503Z,3.6
2023-05-16T19:57:31.510Z,1.4
2023-05-16T20:03:51.821Z,1.4
2023-05-16T20:10:14.543Z,0.3
2023-05-16T20:16:34.501Z,0.3
2023-05-16T20:22:57.714Z,0.2
2023-05-16T20:29:17.529Z,0.2
2023-05-16T20:35:40.583Z,0.6
2023-05-16T20:42:00.694Z,0.6
2023-05-16T20:48:23.613Z,0.3
2023-05-16T20:54:43.612Z,0.3
2023-05-16T21:01:06.676Z,0.7
2023-05-16T21:07:26.705Z,0.7
2023-05-16T21:13:49.515Z,0.4
2023-05-16T21:20:09.765Z,0.4
2023-05-16T21:26:32.639Z,1.9
2023-05-16T21:32:52.523Z,1.9
2023-05-16T21:39:15.763Z,0.8
2023-05-16T21:45:35.511Z,0.8
2023-05-16T21:51:58.580Z,0.4
2023-05-16T21:58:18.972Z,0.4
2023-05-16T22:22:35.674Z,2
2023-05-16T22:28:55.461Z,2
2023-05-16T22:35:18.599Z,2
2023-05-16T22:41:38.622Z,2
2023-05-16T22:48:01.655Z,0.3
2023-05-16T22:54:21.525Z,0.3
2023-05-16T23:00:44.722Z,0.5
2023-05-16T23:07:04.516Z,0.5
2023-05-16T23:13:27.625Z,0.3
2023-05-16T23:19:47.636Z,0.3
2023-05-16T23:26:10.559Z,0.9
2023-05-16T23:32:30.552Z,0.9
2023-05-16T23:38:53.690Z,1.2
2023-05-16T23:45:13.648Z,1.2
2023-05-16T23:51:52.639Z,1
2023-05-16T23:57:56.634Z,1
